Latest Weather Observations for Toowoomba

IDQ60901

Issued at 10:41 pm EST Wednesday 12 August 2020 (issued every 10 minutes, with the page automatically refreshed every 10 minutes)

About weather observations | Map of Brisbane area stations | Latest observations for Brisbane area | Other Formats
Station Details ID: 041529 Name: TOOWOOMBA AIRPORT Lat: -27.54 Lon: 151.91 Height: 640.9 m
Data from the previous 72 hours. | See also: Recent months at Toowoomba
Date/Time
EST
Temp
°C
App
Temp
°C
Dew
Point
°C
Rel
Hum
%
Delta-T
°C
Wind Press
QNH
hPa
Press
MSL
hPa
Rain since
9am
mm
Dir  Spd
km/h
Gust
km/h
Spd
kts
Gust
kts
12/10:30pm 12.1 9.8 11.9 99 0.1 E 15 19 8 10 1018.6 1017.7 0.0
12/10:00pm 12.9 10.3 10.6 86 1.2 ENE 15 19 8 10 1018.3 1017.5 0.0
12/09:30pm 13.6 10.7 9.5 76 2.2 ENE 15 19 8 10 1018.4 1017.6 0.0
12/09:00pm 13.4 10.3 8.7 73 2.4 ENE 15 19 8 10 1018.4 1017.6 0.0
12/08:30pm 13.7 10.8 8.3 70 2.8 ENE 13 19 7 10 1018.7 1017.8 0.0
12/08:00pm 14.8 11.6 6.9 59 4.0 ENE 13 17 7 9 1018.7 1017.8 0.0
12/07:30pm 15.5 12.7 6.8 56 4.4 NE 11 13 6 7 1018.6 1017.7 0.0
12/07:00pm 15.7 13.3 7.2 57 4.3 ENE 9 11 5 6 1018.3 1017.5 0.0
12/06:30pm 15.3 12.9 7.1 58 4.2 ENE 9 13 5 7 1017.8 1016.9 0.0
12/06:00pm 16.8 14.3 6.6 51 5.2 NE 9 11 5 6 1017.5 1016.6 0.0
12/05:30pm 17.8 15.6 6.3 47 5.9 NE 7 9 4 5 1017.2 1016.3 0.0
12/05:00pm 19.0 16.0 5.8 42 6.7 NNE 11 15 6 8 1017.0 1016.1 0.0
12/04:30pm 19.4 15.9 5.5 40 7.0 NNE 13 19 7 10 1016.5 1015.6 0.0
12/04:00pm 19.5 15.9 5.2 39 7.2 NNW 13 19 7 10 1016.6 1015.7 0.0
12/03:30pm 19.8 15.8 5.1 38 7.4 NW 15 22 8 12 1017.0 1016.1 0.0
12/03:00pm 19.6 16.1 5.6 40 7.1 NNW 13 20 7 11 1017.3 1016.4 0.0
12/02:30pm 19.8 16.5 6.5 42 6.9 NW 13 20 7 11 1017.6 1016.7 0.0
12/02:00pm 18.3 13.9 6.5 46 6.0 N 19 28 10 15 1017.9 1017.0 0.0
12/01:30pm 19.7 15.6 6.1 41 7.0 NW 17 28 9 15 1018.1 1017.2 0.0
12/01:00pm 18.3 14.7 6.8 47 5.9 NW 15 20 8 11 1018.7 1017.8 0.0
12/12:30pm 18.8 14.7 7.9 49 5.8 NNW 19 24 10 13 1019.2 1018.3 0.0
12/12:00pm 18.3 14.6 8.0 51 5.4 N 17 26 9 14 1019.8 1019.0 0.0
12/11:30am 17.5 13.6 7.3 51 5.3 N 17 24 9 13 1020.5 1019.6 0.0
12/11:00am 17.3 13.7 8.2 55 4.8 NNW 17 24 9 13 1021.0 1020.2 0.0
12/10:30am 16.2 12.6 8.4 60 4.1 N 17 24 9 13 1021.4 1020.6 0.0
12/10:00am 16.4 13.7 10.5 68 3.2 NNW 15 20 8 11 1022.0 1021.1 0.0
12/09:30am 14.4 12.4 11.6 83 1.6 N 13 17 7 9 1022.1 1021.2 0.0
12/09:00am 13.8 12.2 11.5 86 1.3 NNE 11 17 6 9 1022.2 1021.3 0.0
12/08:30am 12.7 10.7 11.6 93 0.6 NNE 13 17 7 9 1022.0 1021.1 0.0
12/08:00am 12.2 10.1 11.3 94 0.5 NE 13 19 7 10 1021.7 1020.9 0.0
12/07:30am 11.8 9.7 11.2 96 0.3 ENE 13 19 7 10 1021.4 1020.6 0.0
12/07:00am 10.9 8.7 10.7 99 0.1 ENE 13 17 7 9 1021.1 1020.3 0.0
12/06:30am 10.3 7.5 10.1 99 0.1 ENE 15 19 8 10 1020.8 1019.9 0.0
12/06:00am 10.6 7.5 10.4 99 0.1 ENE 17 20 9 11 1020.3 1019.4 0.0
12/05:30am 10.8 8.2 10.6 99 0.1 ENE 15 19 8 10 1020.3 1019.4 0.0
12/05:20am 10.9 7.9 10.7 99 0.1 ENE 17 22 9 12 1020.1 1019.3 0.0
12/05:00am 11.0 7.7 10.8 99 0.1 ENE 19 24 10 13 1020.1 1019.3 0.0
12/04:30am 10.8 7.4 10.6 99 0.1 ENE 19 26 10 14 1019.3 1018.4 0.0
12/04:05am 10.7 7.3 10.5 99 0.1 ENE 19 22 10 12 1019.8 1019.0 0.0
12/04:00am 10.5 7.0 10.3 99 0.1 ENE 19 20 10 11 1019.7 1018.9 0.0
12/03:30am 10.4 6.9 10.2 99 0.1 ENE 19 20 10 11 1019.5 1018.6 0.0
12/03:00am 10.6 7.2 10.4 99 0.1 ENE 19 22 10 12 1019.8 1019.0 0.0
12/02:30am 10.6 7.5 10.4 99 0.1 ENE 17 20 9 11 1020.4 1019.5 0.0
12/02:00am 10.6 7.0 10.4 99 0.1 ENE 20 24 11 13 1020.0 1019.2 0.0
12/01:30am 10.7 7.0 10.1 96 0.3 ENE 20 24 11 13 1020.4 1019.5 0.0
12/01:00am 10.8 6.9 9.6 92 0.6 ENE 20 24 11 13 1020.5 1019.6 0.0
12/12:30am 11.0 7.5 10.1 94 0.5 ENE 19 24 10 13 1020.5 1019.6 0.0
12/12:00am 10.4 6.7 9.5 94 0.5 E 19 22 10 12 1020.4 1019.5 0.0
 
Date/Time
EST
Temp
°C
App
Temp
°C
Dew
Point
°C
Rel
Hum
%
Delta-T
°C
Wind Press
QNH
hPa
Press
MSL
hPa
Rain since
9am
mm
Dir  Spd
km/h
Gust
km/h
Spd
kts
Gust
kts
11/11:30pm 10.6 6.6 9.0 90 0.8 ENE 20 28 11 15 1020.3 1019.4 0.0
11/11:00pm 10.6 6.2 9.0 90 0.8 E 22 26 12 14 1020.1 1019.3 0.0
11/10:30pm 10.7 6.3 9.0 89 0.9 E 22 26 12 14 1020.1 1019.3 0.0
11/10:00pm 11.1 7.2 8.5 84 1.3 E 19 24 10 13 1020.5 1019.6 0.0
11/09:30pm 11.8 7.5 7.9 77 2.0 E 20 26 11 14 1020.1 1019.3 0.0
11/09:00pm 13.0 9.3 8.1 72 2.5 E 17 24 9 13 1020.1 1019.3 0.0
11/08:30pm 12.4 9.8 7.7 73 2.4 E 11 13 6 7 1020.4 1019.5 0.0
11/08:00pm 12.4 9.1 7.9 74 2.3 E 15 17 8 9 1019.7 1018.9 0.0
11/07:30pm 12.4 9.4 7.7 73 2.4 E 13 15 7 8 1019.7 1018.9 0.0
11/07:00pm 12.7 9.7 7.6 71 2.6 E 13 15 7 8 1019.5 1018.6 0.0
11/06:30pm 13.3 10.3 7.5 68 2.9 ENE 13 15 7 8 1019.3 1018.4 0.0
11/06:00pm 14.1 11.1 7.6 65 3.3 ENE 13 17 7 9 1019.0 1018.1 0.0
11/05:30pm 15.2 12.1 7.3 59 4.0 E 13 19 7 10 1018.8 1017.9 0.0
11/05:00pm 16.4 12.5 7.3 55 4.7 E 17 20 9 11 1018.6 1017.7 0.0
11/04:30pm 17.1 14.1 7.7 54 4.9 E 13 17 7 9 1018.2 1017.3 0.0
11/04:00pm 17.5 13.6 7.0 50 5.4 E 17 20 9 11 1018.1 1017.2 0.0
11/03:30pm 17.8 14.3 7.0 49 5.6 ENE 15 19 8 10 1017.9 1017.0 0.0
11/03:00pm 17.9 14.8 7.3 50 5.5 E 13 20 7 11 1017.8 1016.9 0.0
11/02:30pm 17.8 15.8 7.0 49 5.6 E 7 17 4 9 1018.1 1017.2 0.0
11/02:00pm 16.5 14.1 6.9 53 4.9 NE 9 17 5 9 1018.4 1017.6 0.0
11/01:30pm 17.3 14.9 6.8 50 5.4 E 9 17 5 9 1018.4 1017.6 0.0
11/01:00pm 16.5 13.6 6.3 51 5.1 E 11 19 6 10 1018.8 1017.9 0.0
11/12:30pm 16.7 13.5 6.8 52 5.1 NE 13 20 7 11 1019.2 1018.3 0.0
11/12:00pm 16.4 13.9 6.5 52 5.0 E 9 19 5 10 1019.5 1018.6 0.0
11/11:30am 15.5 13.1 6.8 56 4.4 NNE 9 17 5 9 1020.3 1019.4 0.0
11/11:00am 14.6 10.9 6.4 58 4.1 E 15 22 8 12 1020.5 1019.6 0.0
11/10:30am 14.6 12.7 7.6 63 3.6 SW 7 17 4 9 1020.7 1019.8 0.0
11/10:00am 12.4 10.7 7.5 72 2.5 WNW 6 13 3 7 1020.9 1020.0 0.0
11/09:30am 11.4 9.6 7.9 79 1.8 WSW 7 11 4 6 1020.8 1019.9 0.0
11/09:00am 9.4 7.2 7.7 89 0.8 W 9 11 5 6 1020.7 1019.8 0.0
11/08:30am 8.1 6.3 8.0 99 0.0 SW 7 9 4 5 1020.5 1019.6 0.0
11/08:00am 6.8 6.1 6.8 100 0.0 CALM 0 0 0 0 1020.4 1019.5 0.0
11/07:40am 6.2 4.2 6.2 100 0.0 SW 6 7 3 4 1020.3 1019.4 0.0
11/07:39am 6.1 4.4 6.1 100 0.0 SW 4 7 2 4 1020.1 1019.3 0.0
11/07:30am 6.0 5.1 6.0 100 0.0 CALM 0 0 0 0 1020.0 1019.2 0.0
11/07:00am 4.9 2.6 4.9 100 0.0 SW 6 7 3 4 1019.8 1019.0 0.0
11/06:30am 5.3 2.5 5.3 100 0.0 SSW 9 13 5 7 1019.4 1018.5 0.0
11/06:00am 5.8 3.5 5.8 100 0.0 WSW 7 9 4 5 1019.1 1018.2 0.0
11/05:30am 5.9 3.3 5.9 100 0.0 W 9 13 5 7 1019.1 1018.2 0.0
11/05:00am 6.0 3.4 6.0 100 0.0 WSW 9 13 5 7 1018.7 1017.8 0.0
11/04:30am 6.3 3.4 6.3 100 0.0 W 11 15 6 8 1018.7 1017.8 0.0
11/04:00am 6.4 3.1 6.4 100 0.0 W 13 15 7 8 1018.6 1017.7 0.0
11/03:30am 6.5 4.0 6.5 100 0.0 W 9 13 5 7 1018.3 1017.5 0.0
11/03:00am 6.8 3.6 6.8 100 0.0 WNW 13 17 7 9 1018.4 1017.6 0.0
11/02:58am 6.9 3.7 6.9 100 0.0 WNW 13 17 7 9 1018.4 1017.6 0.0
11/02:30am 7.5 4.5 7.5 100 0.0 W 13 17 7 9 1018.2 1017.3 0.0
11/02:00am 7.6 4.2 7.6 100 0.0 WSW 15 19 8 10 1018.3 1017.5 0.0
11/01:30am 7.6 4.2 7.6 100 0.0 WSW 15 20 8 11 1018.6 1017.7 0.0
11/01:00am 7.6 4.2 7.6 100 0.0 W 15 19 8 10 1018.4 1017.6 0.0
11/12:30am 7.8 4.0 7.7 99 0.0 SW 17 24 9 13 1018.3 1017.5 0.0
11/12:00am 7.7 2.6 7.6 99 0.0 SW 24 32 13 17 1018.2 1017.3 0.0
 
Date/Time
EST
Temp
°C
App
Temp
°C
Dew
Point
°C
Rel
Hum
%
Delta-T
°C
Wind Press
QNH
hPa
Press
MSL
hPa
Rain since
9am
mm
Dir  Spd
km/h
Gust
km/h
Spd
kts
Gust
kts
10/11:30pm 7.6 3.2 7.5 99 0.0 SW 20 26 11 14 1018.6 1017.7 0.0
10/11:11pm 7.5 3.1 7.4 99 0.0 WSW 20 26 11 14 1018.4 1017.6 0.0
10/11:00pm 7.3 2.9 7.2 99 0.0 WSW 20 26 11 14 1018.4 1017.6 0.0
10/10:30pm 7.6 2.1 7.5 99 0.0 SW 26 33 14 18 1018.3 1017.5 0.0
10/10:27pm 7.8 1.9 7.7 99 0.0 SW 28 33 15 18 1018.2 1017.3 0.0
10/10:00pm 8.2 2.4 8.1 99 0.0 SW 28 37 15 20 1018.2 1017.3 0.0
10/09:30pm 8.3 2.5 8.0 98 0.1 WSW 28 41 15 22 1018.6 1017.7 0.0
10/09:00pm 8.4 3.3 7.8 96 0.3 WSW 24 35 13 19 1018.4 1017.6 0.0
10/08:30pm 8.1 2.9 7.2 94 0.4 SW 24 30 13 16 1018.3 1017.5 0.0
10/08:00pm 8.2 2.1 6.8 91 0.7 WSW 28 33 15 18 1018.2 1017.3 0.0
10/07:53pm 8.0 2.7 6.6 91 0.7 WSW 24 32 13 17 1018.1 1017.2 0.0
10/07:30pm 7.9 3.3 6.4 90 0.7 WSW 20 26 11 14 1017.9 1017.0 0.0
10/07:00pm 8.2 2.8 6.2 87 0.9 WSW 24 32 13 17 1017.3 1016.4 0.0
10/06:30pm 8.2 3.4 5.8 85 1.1 WSW 20 28 11 15 1016.9 1015.9 0.0
10/06:00pm 8.6 2.6 5.5 81 1.5 WSW 26 32 14 17 1016.4 1015.5 0.0
10/05:30pm 8.8 3.2 5.2 78 1.7 WSW 24 32 13 17 1016.1 1015.2 0.0
10/05:00pm 9.4 4.1 5.0 74 2.1 W 22 28 12 15 1016.1 1015.2 0.0
10/04:30pm 9.1 2.2 4.5 73 2.1 WSW 30 39 16 21 1015.6 1014.7 0.0
10/04:00pm 9.0 2.4 4.4 73 2.1 SW 28 41 15 22 1015.5 1014.5 0.0
10/03:30pm 9.0 2.7 4.0 71 2.3 WSW 26 33 14 18 1015.4 1014.4 0.0
10/03:00pm 8.2 2.7 3.9 74 1.9 WSW 22 32 12 17 1015.0 1014.1 0.0
10/02:30pm 8.4 1.4 4.2 75 1.9 WSW 30 39 16 21 1014.6 1013.7 0.0
10/02:00pm 9.1 1.3 4.9 75 2.0 WSW 35 46 19 25 1014.0 1013.0 0.0
10/01:30pm 8.8 0.9 4.6 75 1.9 WSW 35 48 19 26 1014.1 1013.1 0.0
10/01:00pm 8.9 1.0 4.3 73 2.1 WSW 35 50 19 27 1013.9 1012.9 0.0
10/12:33pm 9.1 1.2 4.1 71 2.3 W 35 54 19 29 1013.7 1012.7 0.0
10/12:30pm 9.1 0.8 4.3 72 2.2 W 37 48 20 26 1013.9 1012.9 0.0
10/12:00pm 9.2 0.5 4.0 70 2.4 WSW 39 57 21 31 1013.8 1012.8 0.0
10/11:41am 9.2 0.4 3.8 69 2.4 W 39 57 21 31 1014.0 1013.0 0.0
10/11:30am 8.8 0.5 4.0 72 2.2 W 37 48 20 26 1014.3 1013.4 0.0
10/11:00am 8.9 -0.2 3.9 71 2.3 W 41 56 22 30 1014.5 1013.6 0.0
10/10:30am 7.9 -0.1 3.8 75 1.8 WSW 35 50 19 27 1014.7 1013.8 0.0
10/10:00am 7.8 -0.6 3.7 75 1.8 WSW 37 56 20 30 1014.7 1013.8 0.0
10/09:36am 7.6 0.2 3.8 77 1.7 WSW 32 52 17 28 1014.8 1013.9 0.0
10/09:30am 7.6 -0.3 4.4 80 1.5 WSW 35 50 19 27 1014.8 1013.9 0.0
10/09:09am 8.0 -0.3 4.0 76 1.8 WSW 37 57 20 31 1014.5 1013.6 0.0
10/09:02am 8.1 -0.2 4.1 76 1.8 WSW 37 57 20 31 1014.4 1013.5 0.0
10/09:00am 8.0 -0.3 4.2 77 1.7 WSW 37 48 20 26 1014.5 1013.6 0.0
10/08:30am 7.4 -0.3 5.2 86 1.0 WSW 35 46 19 25 1014.3 1013.4 0.0
10/08:00am 7.2 0.2 5.8 91 0.7 W 32 43 17 23 1013.9 1012.9 0.0
10/07:30am 6.9 0.8 6.8 99 0.0 W 28 37 15 20 1013.8 1012.8 0.0
10/07:00am 6.7 1.4 6.6 99 0.0 W 24 35 13 19 1013.7 1012.7 0.0
10/06:30am 6.7 1.0 6.6 99 0.0 W 26 35 14 19 1013.2 1012.3 0.0
10/06:00am 6.6 0.1 6.5 99 0.0 W 30 43 16 23 1013.0 1012.1 0.0
10/05:30am 6.5 0.4 6.4 99 0.0 W 28 37 15 20 1013.0 1012.1 0.0
10/05:26am 6.6 0.5 6.5 99 0.0 W 28 46 15 25 1013.0 1012.1 0.0
10/05:00am 6.5 0.0 6.4 99 0.0 W 30 41 16 22 1012.7 1011.7 0.0
10/04:30am 6.4 1.0 6.3 99 0.0 W 24 35 13 19 1012.4 1011.4 0.0
10/04:00am 6.5 0.0 6.4 99 0.0 W 30 41 16 22 1012.3 1011.3 0.0
10/03:30am 6.5 -0.6 6.4 99 0.0 W 33 44 18 24 1012.4 1011.4 0.0
10/03:00am 6.6 -0.5 6.2 97 0.2 W 33 46 18 25 1012.5 1011.5 0.0
10/02:30am 6.8 -0.4 5.7 93 0.5 W 33 46 18 25 1012.9 1012.0 0.0
10/02:00am 7.0 0.1 4.8 86 1.0 W 30 39 16 21 1013.0 1012.1 0.0
10/01:30am 7.2 1.0 4.5 83 1.2 W 26 33 14 18 1013.4 1012.5 0.0
10/01:00am 7.4 1.6 4.2 80 1.4 W 24 32 13 17 1013.9 1012.9 0.0
10/12:30am 7.8 0.3 3.7 75 1.8 W 32 43 17 23 1014.2 1013.2 0.0
10/12:00am 7.1 1.5 3.2 76 1.7 W 22 32 12 17 1014.4 1013.5 0.0
 
Date/Time
EST
Temp
°C
App
Temp
°C
Dew
Point
°C
Rel
Hum
%
Delta-T
°C
Wind Press
QNH
hPa
Press
MSL
hPa
Rain since
9am
mm
Dir  Spd
km/h
Gust
km/h
Spd
kts
Gust
kts
09/11:30pm 7.3 1.2 2.8 73 2.0 W 24 32 13 17 1014.4 1013.5 0.0
09/11:00pm 7.1 1.7 2.6 73 1.9 W 20 30 11 16 1014.8 1013.9 0.0

Latest Capital City Observations: Canberra | Sydney | Melbourne | Brisbane | Adelaide | Perth | Hobart | Darwin

Other formats

Comma delimited format used in spreadsheet applications
http://www.bom.gov.au/fwo/IDQ60901/IDQ60901.95551.axf

JavaScript Object Notation format (JSON) in row-major order
http://www.bom.gov.au/fwo/IDQ60901/IDQ60901.95551.json

Data quality

Most of these data are generated automatically and are frequently updated. Quality checks on data are not normally performed. It is possible for incorrect values to appear. Refer to information at About Latest Weather Observations and please check the disclaimer before using these data.